Time;durP1;ratioP1;P1;durP2;ratioP2;P2;SDS_P1;SDS_P2;PMS_P1;PMS_P2;Temp;Humidity;BMP_temperature;BMP_pressure;BME280_temperature;BME280_humidity;BME280_pressure;Samples;Min_cycle;Max_cycle;Signal;HPM_P1;HPM_P2
2022/06/14 00:02:40;;;;;;;8.30;2.20;;;12.70;99.90;;;;;;5011939;28;20577;-69
2022/06/14 00:05:08;;;;;;;4.77;1.77;;;12.60;99.90;;;;;;5011563;28;20713;-69
2022/06/14 00:07:36;;;;;;;6.23;1.87;;;12.60;99.90;;;;;;5015090;28;20644;-69
2022/06/14 00:10:05;;;;;;;5.70;1.70;;;12.60;99.90;;;;;;5016294;28;20249;-69
2022/06/14 00:12:33;;;;;;;3.93;1.80;;;12.60;99.90;;;;;;5016286;28;20235;-69
2022/06/14 00:15:04;;;;;;;4.57;1.83;;;12.60;99.90;;;;;;5016009;28;20234;-69
2022/06/14 00:17:32;;;;;;;5.37;1.73;;;12.60;99.90;;;;;;5016047;28;20268;-69
2022/06/14 00:20:00;;;;;;;3.80;1.30;;;12.70;99.90;;;;;;5022001;28;20256;-69
2022/06/14 00:22:28;;;;;;;10.07;1.73;;;12.60;99.90;;;;;;5016290;28;20215;-69
2022/06/14 00:24:56;;;;;;;8.47;1.90;;;12.70;99.90;;;;;;5015846;28;20347;-69
2022/06/14 00:27:25;;;;;;;6.43;1.90;;;12.60;99.90;;;;;;5014437;28;20602;-69
2022/06/14 00:29:53;;;;;;;5.43;2.30;;;12.60;99.90;;;;;;5031124;28;20224;-69
2022/06/14 00:32:22;;;;;;;7.93;1.87;;;12.60;99.90;;;;;;5015094;28;20651;-69
2022/06/14 00:34:50;;;;;;;3.63;1.53;;;12.60;99.90;;;;;;5012108;28;20314;-69
2022/06/14 00:37:20;;;;;;;6.67;1.67;;;12.60;99.90;;;;;;5015498;28;20235;-69
2022/06/14 00:39:48;;;;;;;7.27;2.03;;;12.70;99.90;;;;;;5016937;28;20236;-69
2022/06/14 00:42:19;;;;;;;6.27;1.53;;;12.60;99.90;;;;;;5019238;28;20717;-69
2022/06/14 00:45:06;;;;;;;6.57;1.60;;;12.70;99.90;;;;;;5015095;28;20287;-69
2022/06/14 00:47:39;;;;;;;5.43;1.53;;;12.70;99.90;;;;;;5016359;28;20707;-69
2022/06/14 00:50:16;;;;;;;6.27;1.97;;;12.80;99.90;;;;;;5019992;28;20228;-69
2022/06/14 00:52:48;;;;;;;4.17;1.70;;;12.80;99.90;;;;;;5017479;28;20262;-69
2022/06/14 00:55:19;;;;;;;7.93;2.00;;;12.80;99.90;;;;;;5015117;28;20322;-69
2022/06/14 00:57:52;;;;;;;6.30;1.73;;;12.70;99.90;;;;;;5017678;28;20719;-69
2022/06/14 01:00:25;;;;;;;6.80;2.00;;;12.70;99.90;;;;;;5015380;28;20232;-69
2022/06/14 01:02:58;;;;;;;4.83;1.67;;;12.60;99.90;;;;;;5014983;28;20236;-69
2022/06/14 01:06:05;;;;;;;5.67;1.80;;;12.60;99.90;;;;;;5015911;28;20228;-69
2022/06/14 01:08:22;;;;;;;5.93;1.77;;;12.60;99.90;;;;;;5012199;28;20236;-69
2022/06/14 01:10:50;;;;;;;5.83;1.67;;;12.70;99.90;;;;;;5015121;28;20231;-69
2022/06/14 01:13:21;;;;;;;4.93;1.73;;;12.70;99.90;;;;;;5014253;28;20322;-69
2022/06/14 01:15:53;;;;;;;6.63;2.17;;;12.70;99.90;;;;;;5014984;28;20259;-69
2022/06/14 01:18:24;;;;;;;5.33;1.60;;;12.70;99.90;;;;;;5022095;28;20271;-69
2022/06/14 01:20:53;;;;;;;4.70;2.00;;;12.60;99.90;;;;;;5023392;28;20319;-69
2022/06/14 01:23:23;;;;;;;6.93;1.87;;;12.70;99.90;;;;;;5014114;28;20783;-69
2022/06/14 01:25:55;;;;;;;4.87;1.87;;;12.70;99.90;;;;;;5018854;28;20243;-69
2022/06/14 01:28:26;;;;;;;5.40;1.80;;;12.60;99.90;;;;;;5023457;28;20240;-69
2022/06/14 01:30:55;;;;;;;7.53;2.30;;;12.60;99.90;;;;;;5014548;28;20235;-69
2022/06/14 01:33:28;;;;;;;5.87;2.00;;;12.50;99.90;;;;;;5013691;28;20335;-69
2022/06/14 01:36:08;;;;;;;5.60;2.20;;;12.60;99.90;;;;;;5013491;28;20227;-69
2022/06/14 01:38:38;;;;;;;4.57;1.87;;;12.50;99.90;;;;;;5022383;28;20232;-69
2022/06/14 01:41:12;;;;;;;5.43;1.77;;;12.60;99.90;;;;;;5014785;28;20244;-69
2022/06/14 01:44:00;;;;;;;4.50;1.87;;;12.60;99.90;;;;;;5014520;28;20730;-69
2022/06/14 01:46:30;;;;;;;6.47;2.20;;;12.60;99.90;;;;;;5014355;28;20247;-69
2022/06/14 01:51:55;;;;;;;5.77;2.30;;;12.60;99.90;;;;;;5019081;28;20260;-69
2022/06/14 01:54:33;;;;;;;7.63;2.53;;;12.60;99.90;;;;;;5012722;28;20235;-69
2022/06/14 01:57:08;;;;;;;6.23;2.10;;;12.50;99.90;;;;;;5021573;28;20259;-69
2022/06/14 01:59:47;;;;;;;6.80;2.30;;;12.60;99.90;;;;;;5030408;28;20711;-69
2022/06/14 02:02:26;;;;;;;5.80;2.17;;;12.50;99.90;;;;;;5013530;28;20252;-69
2022/06/14 02:05:01;;;;;;;6.50;2.47;;;12.50;99.90;;;;;;5013092;28;20303;-69
2022/06/14 02:07:38;;;;;;;7.17;2.50;;;12.50;99.90;;;;;;5014082;28;20358;-69
2022/06/14 02:10:13;;;;;;;5.73;2.23;;;12.50;99.90;;;;;;5017884;28;20611;-69
2022/06/14 02:12:50;;;;;;;5.57;2.60;;;12.60;99.90;;;;;;5010186;28;20231;-69
2022/06/14 02:15:25;;;;;;;6.27;2.60;;;12.50;99.90;;;;;;5012578;28;20287;-69
2022/06/14 02:18:00;;;;;;;7.83;2.50;;;12.40;99.90;;;;;;5014324;28;20250;-69
2022/06/14 02:20:34;;;;;;;7.93;2.60;;;12.40;99.90;;;;;;5013724;28;20246;-69
2022/06/14 02:23:07;;;;;;;7.27;2.60;;;12.40;99.90;;;;;;5013573;28;20263;-69
2022/06/14 02:25:43;;;;;;;8.63;2.50;;;12.30;99.90;;;;;;5014591;28;20276;-69
2022/06/14 02:28:21;;;;;;;6.67;2.50;;;12.30;99.90;;;;;;5010181;28;20232;-70
2022/06/14 02:30:54;;;;;;;7.87;2.60;;;12.40;99.90;;;;;;5013709;28;20274;-69
2022/06/14 02:33:26;;;;;;;5.13;2.50;;;12.40;99.90;;;;;;5012503;28;20316;-69
2022/06/14 02:35:58;;;;;;;7.03;2.83;;;12.40;99.90;;;;;;5016001;28;20756;-69
2022/06/14 02:38:34;;;;;;;4.70;2.33;;;12.30;99.90;;;;;;5021452;28;20237;-69
2022/06/14 02:41:10;;;;;;;5.40;2.83;;;12.30;99.90;;;;;;5013463;28;20287;-69
2022/06/14 02:43:42;;;;;;;6.50;2.20;;;12.30;99.90;;;;;;5012908;28;20406;-69
2022/06/14 02:46:21;;;;;;;5.70;2.30;;;12.30;99.90;;;;;;5014487;28;20236;-69
2022/06/14 02:48:53;;;;;;;7.10;2.70;;;12.30;99.90;;;;;;5012932;28;20228;-69
2022/06/14 02:51:26;;;;;;;5.73;2.27;;;12.30;99.90;;;;;;5013537;28;20672;-69
2022/06/14 02:53:59;;;;;;;6.33;2.43;;;12.30;99.90;;;;;;5013580;28;20318;-69
2022/06/14 02:56:33;;;;;;;7.83;2.50;;;12.30;99.90;;;;;;5022713;28;20232;-69
2022/06/14 02:59:07;;;;;;;7.57;2.20;;;12.30;99.90;;;;;;5018313;28;20231;-69
2022/06/14 03:01:45;;;;;;;4.70;2.13;;;12.30;99.90;;;;;;5013247;28;20730;-69
2022/06/14 03:04:20;;;;;;;5.33;2.20;;;12.30;99.90;;;;;;5013333;28;20231;-69
2022/06/14 03:06:54;;;;;;;6.27;2.23;;;12.30;99.90;;;;;;5012990;28;20715;-69
2022/06/14 03:09:26;;;;;;;7.00;2.30;;;12.30;99.90;;;;;;5019182;28;20231;-69
2022/06/14 03:12:04;;;;;;;5.90;2.07;;;12.30;99.90;;;;;;5013501;28;20258;-69
2022/06/14 03:14:46;;;;;;;5.27;2.20;;;12.40;99.90;;;;;;5012697;28;20263;-69
2022/06/14 03:17:23;;;;;;;8.67;2.10;;;12.40;99.90;;;;;;5017608;28;20263;-69
2022/06/14 03:20:03;;;;;;;4.90;2.00;;;12.40;99.90;;;;;;5013162;28;20230;-69
2022/06/14 03:22:41;;;;;;;6.13;2.10;;;12.40;99.90;;;;;;5016418;28;20232;-69
2022/06/14 03:25:16;;;;;;;5.90;2.10;;;12.40;99.90;;;;;;5010093;28;20246;-69
2022/06/14 03:27:52;;;;;;;6.93;2.00;;;12.50;99.90;;;;;;5013901;28;20621;-69
2022/06/14 03:30:23;;;;;;;6.20;2.03;;;12.40;99.90;;;;;;5012474;28;20289;-69
2022/06/14 03:32:57;;;;;;;7.27;2.47;;;12.50;99.90;;;;;;5012451;28;20275;-69
2022/06/14 03:35:29;;;;;;;7.03;2.30;;;12.50;99.90;;;;;;5014430;28;20239;-70
2022/06/14 03:38:02;;;;;;;6.73;2.00;;;12.50;99.90;;;;;;5013857;28;20261;-69
2022/06/14 03:40:31;;;;;;;5.90;2.27;;;12.50;99.90;;;;;;5016825;28;20743;-69
2022/06/14 03:43:02;;;;;;;4.97;1.87;;;12.50;99.90;;;;;;5018776;28;20228;-69
2022/06/14 03:45:39;;;;;;;6.43;2.13;;;12.50;99.90;;;;;;5012069;28;20274;-69
2022/06/14 03:48:08;;;;;;;5.40;2.23;;;12.60;99.90;;;;;;5012308;28;20266;-69
2022/06/14 03:50:45;;;;;;;7.83;2.50;;;12.60;99.90;;;;;;5017013;28;20266;-69
2022/06/14 03:53:24;;;;;;;6.10;2.30;;;12.70;99.90;;;;;;5015091;28;20240;-69
2022/06/14 03:56:06;;;;;;;4.60;1.80;;;12.70;99.90;;;;;;5012252;28;20727;-69
2022/06/14 03:58:55;;;;;;;5.70;2.23;;;12.70;99.90;;;;;;5018845;28;20637;-69
2022/06/14 04:01:28;;;;;;;7.80;2.20;;;12.70;99.90;;;;;;5012810;28;20232;-69
2022/06/14 04:04:11;;;;;;;6.20;2.33;;;12.70;99.90;;;;;;5011941;28;20243;-69
2022/06/14 04:06:50;;;;;;;4.83;2.20;;;12.70;99.90;;;;;;5014902;28;20256;-69
2022/06/14 04:09:32;;;;;;;5.83;2.30;;;12.80;99.90;;;;;;5021608;28;20315;-69
2022/06/14 04:12:12;;;;;;;4.70;2.20;;;12.80;99.90;;;;;;5016524;28;20327;-69
2022/06/14 04:14:54;;;;;;;5.30;2.23;;;12.80;99.90;;;;;;5013673;28;20282;-69
2022/06/14 04:17:26;;;;;;;5.20;2.10;;;12.90;99.90;;;;;;5027138;28;20236;-69
2022/06/14 04:20:09;;;;;;;6.57;2.57;;;12.90;99.90;;;;;;5018897;28;20630;-69
2022/06/14 04:22:46;;;;;;;5.50;2.60;;;12.80;99.90;;;;;;5021610;28;20228;-69
2022/06/14 04:25:22;;;;;;;8.73;2.50;;;12.80;99.90;;;;;;5012004;28;20666;-69
2022/06/14 04:27:58;;;;;;;6.00;2.40;;;12.80;99.90;;;;;;5014235;28;20224;-69
2022/06/14 04:30:35;;;;;;;5.33;2.50;;;12.90;99.90;;;;;;5021389;28;20231;-69
2022/06/14 04:33:11;;;;;;;6.37;2.37;;;12.80;99.90;;;;;;5032445;28;20948;-69
2022/06/14 04:35:45;;;;;;;7.60;2.20;;;12.80;99.90;;;;;;5018897;28;20260;-69
2022/06/14 04:38:18;;;;;;;6.63;2.07;;;12.90;99.90;;;;;;5011971;28;20318;-69
2022/06/14 04:40:52;;;;;;;7.27;2.30;;;12.80;99.90;;;;;;5010984;28;20623;-69
2022/06/14 04:43:24;;;;;;;7.40;2.30;;;12.90;99.90;;;;;;5012581;28;20267;-69
2022/06/14 04:45:59;;;;;;;5.87;1.97;;;12.80;99.90;;;;;;5016730;28;20245;-69
2022/06/14 04:48:39;;;;;;;6.87;1.97;;;12.90;99.90;;;;;;5013735;28;20651;-69
2022/06/14 04:51:12;;;;;;;8.67;2.30;;;13.00;99.90;;;;;;5007457;28;20703;-69
2022/06/14 04:53:47;;;;;;;7.00;2.23;;;13.30;99.90;;;;;;5008721;28;20720;-68
2022/06/14 04:56:21;;;;;;;5.27;2.07;;;13.60;99.90;;;;;;5019734;28;20234;-68
2022/06/14 04:58:57;;;;;;;5.37;2.00;;;13.80;99.90;;;;;;5008414;28;20243;-69
2022/06/14 05:01:32;;;;;;;5.97;1.80;;;14.00;99.90;;;;;;5027079;28;20847;-69
2022/06/14 05:04:06;;;;;;;7.63;2.30;;;14.30;99.90;;;;;;5011716;28;20232;-69
2022/06/14 05:06:39;;;;;;;8.17;2.10;;;14.30;99.90;;;;;;5014689;28;20227;-69
2022/06/14 05:09:13;;;;;;;9.23;2.30;;;14.40;99.90;;;;;;5017718;28;20232;-69
2022/06/14 05:11:47;;;;;;;8.13;2.20;;;14.50;99.90;;;;;;5018773;28;20303;-69
2022/06/14 05:14:19;;;;;;;8.33;2.37;;;14.70;99.90;;;;;;5016895;28;20709;-68
2022/06/14 05:16:55;;;;;;;5.37;1.93;;;14.70;99.90;;;;;;5014948;28;20264;-69
2022/06/14 05:19:28;;;;;;;9.37;2.60;;;14.70;99.90;;;;;;5018807;28;20224;-69
2022/06/14 05:22:03;;;;;;;4.83;2.10;;;14.70;99.90;;;;;;5012823;28;20229;-68
2022/06/14 05:24:32;;;;;;;9.80;2.20;;;14.70;99.90;;;;;;5012962;28;20251;-68
2022/06/14 05:27:31;;;;;;;7.03;2.20;;;14.70;99.90;;;;;;5019268;28;20230;-68
2022/06/14 05:30:06;;;;;;;6.20;2.27;;;14.90;99.90;;;;;;5009462;28;20252;-69
2022/06/14 05:32:44;;;;;;;4.33;2.20;;;15.10;99.90;;;;;;5019603;28;20344;-68
2022/06/14 05:35:26;;;;;;;7.00;1.90;;;15.30;99.90;;;;;;5014699;28;20236;-69
2022/06/14 05:37:58;;;;;;;7.73;1.70;;;15.40;99.90;;;;;;5014905;28;20232;-68
2022/06/14 05:40:32;;;;;;;5.57;1.87;;;15.30;99.90;;;;;;5022242;28;20651;-68
2022/06/14 05:43:12;;;;;;;5.30;1.83;;;15.30;99.90;;;;;;5018339;28;20232;-68
2022/06/14 05:45:44;;;;;;;6.40;2.00;;;15.40;99.90;;;;;;5018080;28;20716;-69
2022/06/14 05:48:20;;;;;;;6.47;2.37;;;15.50;99.90;;;;;;5021191;28;20614;-68
2022/06/14 05:50:53;;;;;;;5.63;1.53;;;15.50;99.90;;;;;;5022393;28;20612;-68
2022/06/14 05:53:28;;;;;;;6.33;1.80;;;15.60;99.90;;;;;;5010963;28;20620;-69
2022/06/14 05:56:10;;;;;;;6.87;2.20;;;15.80;99.90;;;;;;5017965;28;20229;-69
2022/06/14 05:58:43;;;;;;;7.93;2.07;;;15.80;99.90;;;;;;5020788;28;20232;-69
2022/06/14 06:01:16;;;;;;;9.23;2.17;;;16.00;99.90;;;;;;5014168;28;20230;-69
2022/06/14 06:03:49;;;;;;;6.87;1.60;;;16.30;99.90;;;;;;5010368;28;20296;-69
2022/06/14 06:06:20;;;;;;;6.37;2.10;;;16.40;99.90;;;;;;5017003;28;20636;-69
2022/06/14 06:08:52;;;;;;;10.80;2.00;;;16.60;99.90;;;;;;5003896;28;21493;-69
2022/06/14 06:11:23;;;;;;;5.57;1.80;;;16.70;99.90;;;;;;5004064;28;20315;-69
2022/06/14 06:13:56;;;;;;;7.37;2.20;;;16.90;99.90;;;;;;5004448;28;20732;-69
2022/06/14 06:16:32;;;;;;;7.83;2.07;;;17.30;99.90;;;;;;5003808;28;20264;-69
2022/06/14 06:19:09;;;;;;;6.60;1.80;;;17.30;99.90;;;;;;4999682;28;20229;-69
2022/06/14 06:21:45;;;;;;;10.50;2.40;;;17.50;99.90;;;;;;5002595;28;20743;-69
2022/06/14 06:24:19;;;;;;;7.70;2.10;;;17.80;99.90;;;;;;5001172;28;20302;-69
2022/06/14 06:26:53;;;;;;;6.77;1.80;;;18.10;99.90;;;;;;5004070;28;20636;-69
2022/06/14 06:29:28;;;;;;;7.40;2.07;;;18.20;99.90;;;;;;4998717;28;20219;-69
2022/06/14 06:31:56;;;;;;;6.60;1.93;;;18.40;99.90;;;;;;5001252;28;20239;-69
2022/06/14 06:34:26;;;;;;;7.30;1.77;;;18.50;99.90;;;;;;5000652;28;20234;-69
2022/06/14 06:37:02;;;;;;;6.13;1.77;;;18.60;99.90;;;;;;5004668;28;20791;-69
2022/06/14 06:39:42;;;;;;;6.70;1.70;;;18.90;99.90;;;;;;4997878;28;20230;-69
2022/06/14 06:42:16;;;;;;;6.50;1.83;;;18.90;99.90;;;;;;5002686;28;20314;-69
2022/06/14 06:44:53;;;;;;;7.53;1.80;;;18.90;99.90;;;;;;5001364;28;20222;-69
2022/06/14 06:47:28;;;;;;;6.73;1.80;;;18.80;99.90;;;;;;5004017;28;20225;-69
2022/06/14 06:50:21;;;;;;;7.60;1.90;;;18.80;99.90;;;;;;5002026;28;20237;-69
2022/06/14 06:53:02;;;;;;;7.23;1.80;;;18.90;99.90;;;;;;5017240;28;20230;-69
2022/06/14 06:55:40;;;;;;;5.37;1.77;;;19.00;99.90;;;;;;5006290;28;20261;-69
2022/06/14 06:58:14;;;;;;;7.40;2.03;;;18.70;99.90;;;;;;5005845;28;20314;-69
2022/06/14 07:00:45;;;;;;;6.73;1.70;;;18.40;99.90;;;;;;5004969;28;21294;-69
2022/06/14 07:03:21;;;;;;;8.80;2.50;;;18.50;99.90;;;;;;5005923;28;20271;-69
2022/06/14 07:05:57;;;;;;;7.67;1.77;;;19.00;99.90;;;;;;5007599;28;20232;-69
2022/06/14 07:08:36;;;;;;;5.70;1.43;;;19.50;99.90;;;;;;5005282;28;20238;-69
2022/06/14 07:11:06;;;;;;;5.73;1.50;;;19.70;99.90;;;;;;5005422;28;20818;-69
2022/06/14 07:13:45;;;;;;;6.70;1.93;;;19.80;99.90;;;;;;5002918;28;20235;-69
2022/06/14 07:16:21;;;;;;;6.97;1.97;;;19.80;99.90;;;;;;5003313;28;20231;-69
2022/06/14 07:18:53;;;;;;;6.63;1.70;;;19.50;99.90;;;;;;5000877;28;21046;-69
2022/06/14 07:21:27;;;;;;;7.53;2.10;;;19.80;99.90;;;;;;5002335;28;20719;-69
2022/06/14 07:23:59;;;;;;;8.47;1.83;;;20.10;99.90;;;;;;5000892;28;20235;-69
2022/06/14 07:26:32;;;;;;;5.90;1.83;;;19.80;99.90;;;;;;5002046;28;20239;-69
2022/06/14 07:29:06;;;;;;;6.30;1.93;;;19.80;99.90;;;;;;5002792;28;20236;-69
2022/06/14 07:31:40;;;;;;;8.10;2.00;;;19.40;99.90;;;;;;5005164;28;20235;-69
2022/06/14 07:34:10;;;;;;;6.93;1.73;;;18.70;99.90;;;;;;5007175;28;20240;-69
2022/06/14 07:36:59;;;;;;;8.53;1.80;;;18.10;99.90;;;;;;5003841;28;20692;-69
2022/06/14 07:39:36;;;;;;;6.97;1.97;;;17.60;99.90;;;;;;5004245;28;20235;-69
2022/06/14 07:42:12;;;;;;;7.13;2.20;;;17.30;99.90;;;;;;5008132;28;20265;-69
2022/06/14 07:44:51;;;;;;;7.57;1.83;;;17.20;99.90;;;;;;5008675;28;20589;-69
2022/06/14 07:47:25;;;;;;;6.03;1.97;;;17.30;99.90;;;;;;5007842;28;20311;-69
2022/06/14 07:49:58;;;;;;;6.37;1.83;;;17.40;99.90;;;;;;5003969;28;20276;-69
2022/06/14 07:52:33;;;;;;;8.60;1.90;;;17.40;99.90;;;;;;5007914;28;20232;-69
2022/06/14 07:55:08;;;;;;;5.63;1.93;;;17.50;99.90;;;;;;5004780;28;20698;-69
2022/06/14 07:57:41;;;;;;;7.53;2.23;;;17.60;99.90;;;;;;5006588;28;20356;-69
2022/06/14 08:03:17;;;;;;;8.90;1.90;;;17.90;99.90;;;;;;5006149;28;20310;-69
2022/06/14 08:05:49;;;;;;;5.90;2.00;;;18.30;99.90;;;;;;5005202;28;20234;-69
2022/06/14 08:08:21;;;;;;;6.57;2.00;;;18.70;99.90;;;;;;5005722;28;20741;-69
2022/06/14 08:10:53;;;;;;;5.37;1.70;;;19.10;99.90;;;;;;5006068;28;20234;-69
2022/06/14 08:13:27;;;;;;;8.17;1.80;;;19.30;99.90;;;;;;5004913;28;20312;-68
2022/06/14 08:15:59;;;;;;;6.27;1.87;;;19.50;99.90;;;;;;5007923;28;20325;-69
2022/06/14 08:18:35;;;;;;;5.93;1.70;;;19.50;99.90;;;;;;5006339;28;20264;-69
2022/06/14 08:21:09;;;;;;;5.83;1.67;;;19.60;99.90;;;;;;5004441;28;20286;-68
2022/06/14 08:24:43;;;;;;;6.80;1.80;;;19.80;99.90;;;;;;4999769;28;20955;-69
2022/06/14 08:28:15;;;;;;;5.07;1.50;;;19.80;99.90;;;;;;4982008;28;20290;-68
2022/06/14 08:31:48;;;;;;;6.60;1.80;;;20.60;99.90;;;;;;4989370;28;20263;-68
2022/06/14 08:35:22;;;;;;;6.40;1.80;;;21.60;99.90;;;;;;4993173;28;20246;-69
2022/06/14 08:37:55;;;;;;;5.77;1.60;;;22.10;99.90;;;;;;5010711;28;20227;-69
2022/06/14 08:40:47;;;;;;;6.93;1.70;;;21.90;99.90;;;;;;5008607;28;20713;-68
2022/06/14 08:43:22;;;;;;;7.00;1.70;;;21.40;99.90;;;;;;5008865;28;20337;-69
2022/06/14 08:46:11;;;;;;;4.00;1.50;;;20.90;99.90;;;;;;5010521;28;20334;-69
2022/06/14 08:48:42;;;;;;;9.13;2.00;;;20.40;99.90;;;;;;5006408;28;20669;-69
2022/06/14 08:51:22;;;;;;;4.83;1.90;;;20.10;99.90;;;;;;5011382;28;20236;-69
2022/06/14 08:54:30;;;;;;;5.00;1.53;;;19.70;99.90;;;;;;5010300;28;20315;-69
2022/06/14 08:57:22;;;;;;;4.50;1.50;;;20.40;99.90;;;;;;5008830;28;20242;-69
2022/06/14 09:00:11;;;;;;;5.33;1.80;;;21.40;99.90;;;;;;5005578;28;20232;-69
2022/06/14 09:03:15;;;;;;;4.97;1.47;;;22.20;99.90;;;;;;5011229;28;20359;-69
2022/06/14 09:06:24;;;;;;;7.03;1.73;;;22.90;99.90;;;;;;5010431;28;20227;-69
2022/06/14 09:09:34;;;;;;;6.93;1.80;;;23.50;99.90;;;;;;4989024;28;20237;-69
2022/06/14 09:12:32;;;;;;;5.03;1.80;;;24.30;99.90;;;;;;4961548;28;20740;-69
2022/06/14 09:15:30;;;;;;;8.37;1.80;;;24.10;99.90;;;;;;5019094;28;20774;-69
2022/06/14 09:18:38;;;;;;;5.23;1.50;;;24.00;99.90;;;;;;5015562;28;20227;-69
2022/06/14 09:21:21;;;;;;;3.10;1.43;;;23.40;99.90;;;;;;5017725;28;20248;-69
2022/06/14 09:24:13;;;;;;;4.93;1.53;;;22.20;99.90;;;;;;5017264;28;20316;-69
2022/06/14 09:26:49;;;;;;;5.63;1.73;;;21.50;99.90;;;;;;5022778;28;20240;-69
2022/06/14 09:29:54;;;;;;;6.83;1.47;;;21.10;99.90;;;;;;5015021;28;20287;-69
2022/06/14 09:33:14;;;;;;;5.87;1.70;;;21.20;99.90;;;;;;5025170;28;20270;-69
2022/06/14 09:36:27;;;;;;;3.77;1.23;;;22.10;99.90;;;;;;5016998;28;20252;-69
2022/06/14 09:39:46;;;;;;;3.80;1.27;;;23.10;99.90;;;;;;5019197;28;20246;-69
2022/06/14 09:42:37;;;;;;;3.53;1.10;;;24.00;99.90;;;;;;5004436;28;20320;-68
2022/06/14 09:45:32;;;;;;;2.87;1.00;;;24.00;99.90;;;;;;5013797;28;20619;-69
2022/06/14 09:48:33;;;;;;;6.37;1.80;;;24.60;99.90;;;;;;5008129;28;20324;-69
2022/06/14 09:51:34;;;;;;;5.53;1.87;;;23.90;99.90;;;;;;4983931;28;20700;-68
2022/06/14 09:54:44;;;;;;;5.83;1.60;;;22.70;99.90;;;;;;5010212;28;20301;-69
2022/06/14 09:57:31;;;;;;;5.43;1.40;;;22.10;99.90;;;;;;5009916;28;20319;-69
2022/06/14 10:00:13;;;;;;;4.83;1.40;;;22.20;99.90;;;;;;5006666;28;20228;-68
2022/06/14 10:03:04;;;;;;;6.43;1.50;;;23.10;99.90;;;;;;5008728;28;20291;-69
2022/06/14 10:05:48;;;;;;;3.33;1.53;;;23.80;99.90;;;;;;5007499;28;20308;-69
2022/06/14 10:08:46;;;;;;;6.17;1.40;;;23.90;99.90;;;;;;5010752;28;20697;-69
2022/06/14 10:11:37;;;;;;;4.20;1.43;;;23.00;99.90;;;;;;5007824;28;20720;-69
2022/06/14 10:14:22;;;;;;;4.80;1.53;;;22.30;99.90;;;;;;5005335;28;20225;-69
2022/06/14 10:17:20;;;;;;;4.17;1.27;;;22.20;99.90;;;;;;5008480;28;20708;-69
2022/06/14 10:20:09;;;;;;;5.73;1.50;;;23.10;99.90;;;;;;5006975;28;20716;-69
2022/06/14 10:22:51;;;;;;;5.10;1.40;;;23.60;99.90;;;;;;5007609;28;20244;-69
2022/06/14 10:25:26;;;;;;;5.30;1.40;;;22.80;99.90;;;;;;5009032;28;20286;-69
2022/06/14 10:28:13;;;;;;;5.03;1.50;;;22.20;99.90;;;;;;5008223;28;20267;-69
2022/06/14 10:31:03;;;;;;;4.97;1.30;;;21.90;99.90;;;;;;5006379;28;20249;-69
2022/06/14 10:33:43;;;;;;;5.33;1.40;;;21.90;99.90;;;;;;5008174;28;20247;-68
2022/06/14 10:36:36;;;;;;;4.87;1.20;;;22.00;99.90;;;;;;5006724;28;20292;-69
2022/06/14 10:39:39;;;;;;;4.63;1.00;;;22.30;99.90;;;;;;5008455;28;20828;-69
2022/06/14 10:42:17;;;;;;;4.33;1.00;;;22.50;99.90;;;;;;5006824;28;20750;-69
2022/06/14 10:44:54;;;;;;;6.17;1.10;;;22.40;99.90;;;;;;5007229;28;20327;-69
2022/06/14 10:47:36;;;;;;;3.97;1.23;;;22.00;99.90;;;;;;5008244;28;20677;-69
2022/06/14 10:50:22;;;;;;;5.43;1.40;;;21.40;99.90;;;;;;5005678;28;20643;-69
2022/06/14 10:53:04;;;;;;;5.23;1.23;;;21.40;99.90;;;;;;5005979;28;20217;-69
2022/06/14 10:55:48;;;;;;;5.83;1.20;;;21.40;99.90;;;;;;5008871;28;20278;-69
2022/06/14 10:58:52;;;;;;;2.40;1.10;;;21.70;99.90;;;;;;5008125;28;21354;-69
2022/06/14 11:01:34;;;;;;;5.00;1.40;;;21.80;99.90;;;;;;5006990;28;20280;-69
2022/06/14 11:04:09;;;;;;;3.60;1.40;;;22.20;99.90;;;;;;5008214;28;20237;-69
2022/06/14 11:07:03;;;;;;;4.70;1.20;;;22.40;99.90;;;;;;5006655;28;20224;-69
2022/06/14 11:09:43;;;;;;;6.47;1.43;;;22.10;99.90;;;;;;5005835;28;20232;-69
2022/06/14 11:12:31;;;;;;;5.43;1.37;;;21.90;99.90;;;;;;5008355;28;20588;-69
2022/06/14 11:15:10;;;;;;;2.93;1.20;;;21.90;99.90;;;;;;5001285;28;20243;-69
2022/06/14 11:17:56;;;;;;;5.27;1.30;;;21.80;99.90;;;;;;5001775;28;20359;-69
2022/06/14 11:20:39;;;;;;;3.27;1.40;;;21.80;99.90;;;;;;5001302;28;20294;-69
2022/06/14 11:23:13;;;;;;;5.13;1.23;;;21.70;99.90;;;;;;5001567;28;20229;-69
2022/06/14 11:25:48;;;;;;;3.57;1.33;;;21.90;99.90;;;;;;4997863;28;21205;-69
2022/06/14 11:28:25;;;;;;;3.63;1.40;;;22.30;99.90;;;;;;5078234;22;20331;-68
2022/06/14 11:31:06;;;;;;;4.17;1.13;;;22.70;99.90;;;;;;4983940;28;20279;-68
2022/06/14 11:33:49;;;;;;;3.93;1.20;;;23.80;99.90;;;;;;4987915;28;20238;-69
2022/06/14 11:36:37;;;;;;;3.63;1.20;;;24.20;99.90;;;;;;4987981;28;20251;-69
2022/06/14 11:39:26;;;;;;;5.00;1.40;;;23.70;99.90;;;;;;4984482;28;20240;-69
2022/06/14 11:41:56;;;;;;;3.37;1.10;;;23.40;99.90;;;;;;4984851;28;20237;-69
2022/06/14 11:44:47;;;;;;;3.23;1.20;;;23.00;99.90;;;;;;4983294;28;20248;-69
2022/06/14 11:47:20;;;;;;;3.10;1.00;;;22.70;99.90;;;;;;4995862;28;20284;-68
2022/06/14 11:49:56;;;;;;;4.33;1.30;;;22.40;99.90;;;;;;5002863;28;20660;-69
2022/06/14 11:52:50;;;;;;;4.57;1.20;;;22.10;99.90;;;;;;4996779;28;20707;-69
2022/06/14 11:55:27;;;;;;;4.73;1.10;;;21.90;99.90;;;;;;4990308;28;20317;-69
2022/06/14 11:58:09;;;;;;;3.00;1.00;;;21.80;99.90;;;;;;4993043;28;20233;-69
2022/06/14 12:01:03;;;;;;;4.07;1.30;;;21.70;99.90;;;;;;4991683;28;20261;-69
2022/06/14 12:03:56;;;;;;;3.00;1.30;;;21.40;99.90;;;;;;4992384;28;20734;-68
2022/06/14 12:06:36;;;;;;;4.77;1.27;;;21.30;99.90;;;;;;4992764;28;20316;-69
2022/06/14 12:09:38;;;;;;;4.10;1.33;;;21.30;99.90;;;;;;4997469;28;20722;-69
2022/06/14 12:12:17;;;;;;;3.10;1.33;;;21.30;99.90;;;;;;4991812;28;20241;-69
2022/06/14 12:15:00;;;;;;;3.03;0.93;;;21.30;99.90;;;;;;4988008;28;20267;-69
2022/06/14 12:17:31;;;;;;;4.17;1.30;;;21.30;99.90;;;;;;4992505;28;20305;-69
2022/06/14 12:20:07;;;;;;;2.33;1.20;;;21.30;99.90;;;;;;4992550;28;20222;-69
2022/06/14 12:22:48;;;;;;;4.90;1.27;;;21.00;99.90;;;;;;4995958;28;20257;-69
2022/06/14 12:28:17;;;;;;;5.77;1.50;;;21.00;99.90;;;;;;4997971;28;20311;-69
2022/06/14 12:30:52;;;;;;;5.30;1.20;;;21.00;99.90;;;;;;4981055;28;20242;-69
2022/06/14 12:33:29;;;;;;;4.03;1.20;;;21.00;99.90;;;;;;4969120;28;20640;-69
2022/06/14 12:36:06;;;;;;;3.50;1.20;;;21.30;99.90;;;;;;4974948;28;20240;-69
2022/06/14 12:38:39;;;;;;;4.10;1.10;;;21.50;99.90;;;;;;4972407;28;20234;-69
2022/06/14 12:41:18;;;;;;;5.40;1.30;;;21.50;99.90;;;;;;4974975;28;20238;-69
2022/06/14 12:44:01;;;;;;;5.37;1.30;;;21.40;99.90;;;;;;4972387;28;20733;-69
2022/06/14 12:46:35;;;;;;;2.97;1.10;;;21.50;99.90;;;;;;4974736;28;20241;-69
2022/06/14 12:49:10;;;;;;;2.20;1.17;;;21.80;99.90;;;;;;4974294;28;20739;-69
2022/06/14 12:51:51;;;;;;;3.90;1.40;;;22.10;99.90;;;;;;4974917;28;20257;-68
2022/06/14 12:54:28;;;;;;;2.87;1.13;;;22.00;99.90;;;;;;4972102;28;20628;-69
2022/06/14 12:57:02;;;;;;;4.47;1.20;;;22.00;99.90;;;;;;4976185;28;20802;-68
2022/06/14 12:59:40;;;;;;;5.17;1.40;;;22.00;99.90;;;;;;4974225;28;20772;-69
2022/06/14 13:02:17;;;;;;;3.10;1.20;;;22.00;99.90;;;;;;4974322;28;20566;-69
2022/06/14 13:04:49;;;;;;;3.27;1.20;;;22.00;99.90;;;;;;4971043;28;20728;-69
2022/06/14 13:07:42;;;;;;;4.33;1.37;;;22.00;99.90;;;;;;4967014;28;20234;-69
2022/06/14 13:10:29;;;;;;;3.90;1.10;;;22.00;99.90;;;;;;4957619;28;20813;-69
2022/06/14 13:13:16;;;;;;;2.17;1.20;;;22.10;99.90;;;;;;4950402;28;20244;-69
2022/06/14 13:15:54;;;;;;;3.60;1.40;;;22.30;99.90;;;;;;4956397;28;20552;-69
2022/06/14 13:18:38;;;;;;;5.00;1.27;;;22.20;99.90;;;;;;4967601;28;20229;-69
2022/06/14 13:21:13;;;;;;;4.33;1.30;;;22.20;99.90;;;;;;4967199;28;20230;-69
2022/06/14 13:23:53;;;;;;;3.73;1.30;;;22.50;99.90;;;;;;4964354;28;20851;-69
2022/06/14 13:26:42;;;;;;;3.17;1.20;;;22.60;99.90;;;;;;4966589;28;20256;-69
2022/06/14 13:29:34;;;;;;;4.13;1.20;;;22.50;99.90;;;;;;4967835;28;20582;-69
2022/06/14 13:32:36;;;;;;;2.73;1.20;;;22.30;99.90;;;;;;4967727;28;20261;-69
2022/06/14 13:35:28;;;;;;;3.30;1.00;;;22.30;99.90;;;;;;4973014;28;20631;-69
2022/06/14 13:38:00;;;;;;;2.57;1.10;;;22.10;99.90;;;;;;4974962;28;20254;-69
2022/06/14 13:40:35;;;;;;;3.43;0.97;;;22.10;99.90;;;;;;4974807;28;20635;-69
2022/06/14 13:43:13;;;;;;;5.17;1.00;;;22.20;99.90;;;;;;4977949;28;20257;-69
2022/06/14 13:45:46;;;;;;;4.20;1.10;;;21.80;99.90;;;;;;4988916;28;20263;-69
2022/06/14 13:48:22;;;;;;;3.07;1.27;;;21.60;99.90;;;;;;4984336;28;20234;-69
2022/06/14 13:50:55;;;;;;;3.37;1.10;;;21.50;99.90;;;;;;4988608;28;20268;-69
2022/06/14 13:53:27;;;;;;;3.23;1.30;;;21.40;99.90;;;;;;4973555;28;20701;-69
2022/06/14 13:56:03;;;;;;;2.20;0.80;;;21.20;99.90;;;;;;4972723;28;20982;-69
2022/06/14 13:58:38;;;;;;;3.17;1.10;;;21.40;99.90;;;;;;4977947;28;20300;-69